Delta Pioneer — SYIO — position and weather

sailwx.info

Track history (hours):
 
Tides and Currents Weather Stations Pressure Air Temp Water Temp Dewpoint Dewpoint Depression Visibility Wind Speed Wind Dir Waves Ship Positions

Delta Pioneer

Last reported at 2016-Aug-24 02:31 UTC. Time now 2016-Aug-24 06:50 UTC.
Position N 41°11' W 008°42'.

Length 249 m; draft 12.8 m.

Type: Tanker. MMSI: 240244000.

Date/timePositionNaut miles runAvg speedWind from/ knotsBaromVisibWave heightAir tempDewpointWater temp
2016-Aug-24 02:31N 41°11' W 008°42'0 0.0
2016-Aug-23 23:13N 41°11' W 008°42'0 0.0
2016-Aug-23 22:31N 41°11' W 008°42'0 0.0
2016-Aug-23 21:31N 41°11' W 008°42'0 0.0
2016-Aug-23 20:31N 41°11' W 008°42'0 0.0
2016-Aug-23 19:31N 41°11' W 008°42'0 0.0
2016-Aug-23 18:31N 41°11' W 008°42'6 0.1
2016-Aug-21 19:20N 41°06' W 008°48'12711.5
2016-Aug-21 08:15N 39°10' W 009°57'811.2
2016-Aug-21 07:30N 39°02' W 009°57'1010.8
2016-Aug-21 06:33N 38°52' W 009°57'1211.4
2016-Aug-21 05:29N 38°40' W 009°56'1111.6
2016-Aug-21 04:34N 38°30' W 009°49'1211.9
2016-Aug-21 03:33N 38°22' W 009°38'1212.0
2016-Aug-21 02:33N 38°14' W 009°26'1212.4
2016-Aug-21 01:33N 38°06' W 009°14'1212.5
2016-Aug-21 00:33N 37°58' W 009°03'7 7.4
2016-Aug-20 23:33N 37°57' W 008°53'0 0.1
2016-Aug-20 22:33N 37°57' W 008°53'0 0.0
2016-Aug-20 21:33N 37°57' W 008°53'0 0.0
2016-Aug-20 20:33N 37°57' W 008°53'0 0.0
2016-Aug-20 19:33N 37°57' W 008°53'0 0.0
2016-Aug-20 18:30N 37°57' W 008°53'0 0.0
2016-Aug-20 17:33N 37°57' W 008°53'0 0.0
2016-Aug-20 16:33N 37°57' W 008°53'0 0.0
2016-Aug-20 15:33N 37°57' W 008°53'0 0.0
2016-Aug-20 14:33N 37°57' W 008°53'0 0.0
2016-Aug-20 13:33N 37°57' W 008°53'0 0.0
2016-Aug-20 12:33N 37°57' W 008°53'0 0.0
2016-Aug-20 11:33N 37°57' W 008°53'0 0.0
2016-Aug-20 10:33N 37°57' W 008°53'0 0.0
2016-Aug-20 09:33N 37°57' W 008°53'0 0.0
2016-Aug-20 08:33N 37°57' W 008°53'0 0.0
2016-Aug-20 07:33N 37°57' W 008°53'0 0.0
2016-Aug-20 06:33N 37°57' W 008°53'0 0.0
2016-Aug-20 05:33N 37°57' W 008°53'0 0.0
2016-Aug-20 04:33N 37°57' W 008°53'0 0.0
2016-Aug-20 03:33N 37°57' W 008°53'0 0.0
2016-Aug-20 02:33N 37°57' W 008°53'0 0.0
2016-Aug-20 01:33N 37°57' W 008°53'0 0.0
2016-Aug-20 00:33N 37°57' W 008°53'0 0.0
2016-Aug-19 23:33N 37°57' W 008°53'0 0.0
2016-Aug-19 22:33N 37°57' W 008°53'0 0.0
2016-Aug-19 21:33N 37°57' W 008°53'0 0.0
2016-Aug-19 20:33N 37°57' W 008°53'0 0.0
2016-Aug-19 19:30N 37°57' W 008°53'0 0.0
2016-Aug-19 18:33N 37°57' W 008°53'0 0.0
2016-Aug-19 17:33N 37°57' W 008°53'0 0.0
2016-Aug-19 16:33N 37°57' W 008°53'0 0.0
2016-Aug-19 15:33N 37°57' W 008°53'0 0.0
2016-Aug-19 14:33N 37°57' W 008°53'0 0.0
2016-Aug-19 13:33N 37°57' W 008°53'0 0.0
2016-Aug-19 12:33N 37°57' W 008°53'3 2.9
2016-Aug-19 11:33N 37°54' W 008°53'1 1.1
2016-Aug-19 10:33N 37°53' W 008°53'0 0.1
2016-Aug-19 09:33N 37°53' W 008°53'0 0.0
2016-Aug-19 08:33N 37°53' W 008°53'0 0.0
2016-Aug-19 07:33N 37°53' W 008°53'0 0.0
2016-Aug-19 06:33N 37°53' W 008°53'0 0.0
2016-Aug-19 05:33N 37°53' W 008°53'0 0.0
2016-Aug-19 04:33N 37°53' W 008°53'0 0.0
2016-Aug-19 03:33N 37°53' W 008°53'0 0.0
2016-Aug-19 02:33N 37°53' W 008°53'0 0.0
2016-Aug-19 01:33N 37°53' W 008°53'0 0.0
2016-Aug-19 00:33N 37°53' W 008°53'0 0.0
2016-Aug-18 23:30N 37°53' W 008°53'0 0.0
2016-Aug-18 22:33N 37°53' W 008°53'0 0.0
2016-Aug-18 21:33N 37°53' W 008°53'0 0.0
2016-Aug-18 20:33N 37°53' W 008°53'0 0.0
2016-Aug-18 19:33N 37°53' W 008°53'0 0.0
2016-Aug-18 18:33N 37°53' W 008°53'0 0.0
2016-Aug-18 17:33N 37°53' W 008°53'0 0.0
2016-Aug-18 16:33N 37°53' W 008°53'0 0.0
2016-Aug-18 15:33N 37°53' W 008°53'0 0.0
2016-Aug-18 14:33N 37°53' W 008°53'0 0.0
2016-Aug-18 13:33N 37°53' W 008°53'0 0.0
2016-Aug-18 12:33N 37°53' W 008°53'0 0.0
2016-Aug-18 11:33N 37°53' W 008°53'0 0.0
2016-Aug-18 10:33N 37°53' W 008°53'0 0.0
2016-Aug-18 09:33N 37°53' W 008°53'0 0.0
2016-Aug-18 08:30N 37°53' W 008°53'0 0.0
2016-Aug-18 07:33N 37°53' W 008°53'0 0.0
2016-Aug-18 06:33N 37°53' W 008°53'0 0.1
2016-Aug-18 05:33N 37°53' W 008°53'0 0.0
2016-Aug-18 04:33N 37°53' W 008°53'0 0.0
2016-Aug-18 03:33N 37°53' W 008°53'0 0.0
2016-Aug-18 02:33N 37°53' W 008°53'0 0.0
2016-Aug-18 01:33N 37°53' W 008°53'0 0.0
2016-Aug-18 00:33N 37°53' W 008°53'0 0.0
2016-Aug-17 23:33N 37°53' W 008°53'0 0.1
2016-Aug-17 22:33N 37°53' W 008°53'0 0.1
2016-Aug-17 21:33N 37°53' W 008°53'0 0.1
2016-Aug-17 20:33N 37°53' W 008°53'0 0.1
2016-Aug-17 19:33N 37°53' W 008°53'0 0.0
2016-Aug-17 18:33N 37°53' W 008°53'0 0.0
2016-Aug-17 17:33N 37°53' W 008°53'2 1.9
2016-Aug-17 16:33N 37°55' W 008°54'2 2.3
2016-Aug-17 15:32N 37°57' W 008°53'0 0.0
2016-Aug-17 14:32N 37°57' W 008°53'0 0.0
2016-Aug-17 13:32N 37°57' W 008°53'0 0.0
2016-Aug-17 12:32N 37°57' W 008°53'0 0.0
2016-Aug-17 11:32N 37°57' W 008°53'0 0.0
2016-Aug-17 10:29N 37°57' W 008°53'0 0.0
2016-Aug-17 09:32N 37°57' W 008°53'0 0.0
2016-Aug-17 08:32N 37°57' W 008°53'0 0.0
2016-Aug-17 07:32N 37°57' W 008°53'0 0.0
2016-Aug-17 06:32N 37°57' W 008°53'0 0.0
2016-Aug-17 05:32N 37°57' W 008°53'0 0.0
2016-Aug-17 04:29N 37°57' W 008°53'0 0.0
2016-Aug-17 03:32N 37°57' W 008°53'0 0.0
2016-Aug-17 02:32N 37°57' W 008°53'0 0.0
2016-Aug-17 01:32N 37°57' W 008°53'0 0.0
2016-Aug-17 00:32N 37°57' W 008°53'0 0.0
2016-Aug-16 23:32N 37°57' W 008°53'0 0.0
2016-Aug-16 22:32N 37°57' W 008°53'0 0.0
2016-Aug-16 21:32N 37°57' W 008°53'0 0.0
2016-Aug-16 20:32N 37°57' W 008°53'0 0.0
2016-Aug-16 19:32N 37°57' W 008°53'0 0.0
2016-Aug-16 18:32N 37°57' W 008°53'0 0.0
2016-Aug-16 17:32N 37°57' W 008°53'0 0.0
2016-Aug-16 16:32N 37°57' W 008°53'0 0.0
2016-Aug-16 15:32N 37°57' W 008°53'0 0.0
2016-Aug-16 14:32N 37°57' W 008°53'0 0.0
2016-Aug-16 13:32N 37°57' W 008°53'0 0.0
2016-Aug-16 12:32N 37°57' W 008°53'0 0.0
2016-Aug-16 11:32N 37°57' W 008°53'0 0.0
2016-Aug-16 10:32N 37°57' W 008°53'0 0.0
2016-Aug-16 09:32N 37°57' W 008°53'0 0.2
2016-Aug-16 08:33N 37°57' W 008°53'3 3.3
2016-Aug-16 07:32N 37°54' W 008°56'3010.1
2016-Aug-16 04:33N 38°07' W 009°31'1212.1
2016-Aug-16 03:33N 38°15' W 009°43'1212.3
2016-Aug-16 02:33N 38°24' W 009°54'1211.9
2016-Aug-16 01:33N 38°32' W 010°05'1211.9
2016-Aug-16 00:33N 38°43' W 010°10'1313.0
2016-Aug-15 23:33N 38°56' W 010°12'1212.3
2016-Aug-15 22:33N 39°08' W 010°13'1612.2
2016-Aug-15 21:12N 39°25' W 010°12'10912.4
2016-Aug-15 12:24N 41°14' W 010°11'1112.3
2016-Aug-15 11:30N 41°24' W 010°12'1612.5
2016-Aug-15 10:15N 41°40' W 010°11'1412.4
2016-Aug-15 09:07N 41°54' W 010°12'712.5
2016-Aug-15 08:33N 42°01' W 010°11'1312.3
2016-Aug-15 07:32N 42°14' W 010°12'1512.4
2016-Aug-15 06:17N 42°29' W 010°12'  
Track history (hours):
 
Tides and Currents Weather Stations Pressure Air Temp Water Temp Dewpoint Dewpoint Depression Visibility Wind Speed Wind Dir Waves Ship Positions

Delta Pioneer

Last reported at 2016-Aug-24 02:31 UTC. Time now 2016-Aug-24 06:50 UTC.
Position N 41°11' W 008°42'.

Length 249 m; draft 12.8 m.

Type: Tanker. MMSI: 240244000.

Date/timePositionNaut miles runAvg speedWind from/ knotsBaromVisibWave heightAir tempDewpointWater temp
2016-Aug-24 02:31N 41°11' W 008°42'0 0.0
2016-Aug-23 23:13N 41°11' W 008°42'0 0.0
2016-Aug-23 22:31N 41°11' W 008°42'0 0.0
2016-Aug-23 21:31N 41°11' W 008°42'0 0.0
2016-Aug-23 20:31N 41°11' W 008°42'0 0.0
2016-Aug-23 19:31N 41°11' W 008°42'0 0.0
2016-Aug-23 18:31N 41°11' W 008°42'6 0.1
2016-Aug-21 19:20N 41°06' W 008°48'12711.5
2016-Aug-21 08:15N 39°10' W 009°57'811.2
2016-Aug-21 07:30N 39°02' W 009°57'1010.8
2016-Aug-21 06:33N 38°52' W 009°57'1211.4
2016-Aug-21 05:29N 38°40' W 009°56'1111.6
2016-Aug-21 04:34N 38°30' W 009°49'1211.9
2016-Aug-21 03:33N 38°22' W 009°38'1212.0
2016-Aug-21 02:33N 38°14' W 009°26'1212.4
2016-Aug-21 01:33N 38°06' W 009°14'1212.5
2016-Aug-21 00:33N 37°58' W 009°03'7 7.4
2016-Aug-20 23:33N 37°57' W 008°53'0 0.1
2016-Aug-20 22:33N 37°57' W 008°53'0 0.0
2016-Aug-20 21:33N 37°57' W 008°53'0 0.0
2016-Aug-20 20:33N 37°57' W 008°53'0 0.0
2016-Aug-20 19:33N 37°57' W 008°53'0 0.0
2016-Aug-20 18:30N 37°57' W 008°53'0 0.0
2016-Aug-20 17:33N 37°57' W 008°53'0 0.0
2016-Aug-20 16:33N 37°57' W 008°53'0 0.0
2016-Aug-20 15:33N 37°57' W 008°53'0 0.0
2016-Aug-20 14:33N 37°57' W 008°53'0 0.0
2016-Aug-20 13:33N 37°57' W 008°53'0 0.0
2016-Aug-20 12:33N 37°57' W 008°53'0 0.0
2016-Aug-20 11:33N 37°57' W 008°53'0 0.0
2016-Aug-20 10:33N 37°57' W 008°53'0 0.0
2016-Aug-20 09:33N 37°57' W 008°53'0 0.0
2016-Aug-20 08:33N 37°57' W 008°53'0 0.0
2016-Aug-20 07:33N 37°57' W 008°53'0 0.0
2016-Aug-20 06:33N 37°57' W 008°53'0 0.0
2016-Aug-20 05:33N 37°57' W 008°53'0 0.0
2016-Aug-20 04:33N 37°57' W 008°53'0 0.0
2016-Aug-20 03:33N 37°57' W 008°53'0 0.0
2016-Aug-20 02:33N 37°57' W 008°53'0 0.0
2016-Aug-20 01:33N 37°57' W 008°53'0 0.0
2016-Aug-20 00:33N 37°57' W 008°53'0 0.0
2016-Aug-19 23:33N 37°57' W 008°53'0 0.0
2016-Aug-19 22:33N 37°57' W 008°53'0 0.0
2016-Aug-19 21:33N 37°57' W 008°53'0 0.0
2016-Aug-19 20:33N 37°57' W 008°53'0 0.0
2016-Aug-19 19:30N 37°57' W 008°53'0 0.0
2016-Aug-19 18:33N 37°57' W 008°53'0 0.0
2016-Aug-19 17:33N 37°57' W 008°53'0 0.0
2016-Aug-19 16:33N 37°57' W 008°53'0 0.0
2016-Aug-19 15:33N 37°57' W 008°53'0 0.0
2016-Aug-19 14:33N 37°57' W 008°53'0 0.0
2016-Aug-19 13:33N 37°57' W 008°53'0 0.0
2016-Aug-19 12:33N 37°57' W 008°53'3 2.9
2016-Aug-19 11:33N 37°54' W 008°53'1 1.1
2016-Aug-19 10:33N 37°53' W 008°53'0 0.1
2016-Aug-19 09:33N 37°53' W 008°53'0 0.0
2016-Aug-19 08:33N 37°53' W 008°53'0 0.0
2016-Aug-19 07:33N 37°53' W 008°53'0 0.0
2016-Aug-19 06:33N 37°53' W 008°53'0 0.0
2016-Aug-19 05:33N 37°53' W 008°53'0 0.0
2016-Aug-19 04:33N 37°53' W 008°53'0 0.0
2016-Aug-19 03:33N 37°53' W 008°53'0 0.0
2016-Aug-19 02:33N 37°53' W 008°53'0 0.0
2016-Aug-19 01:33N 37°53' W 008°53'0 0.0
2016-Aug-19 00:33N 37°53' W 008°53'0 0.0
2016-Aug-18 23:30N 37°53' W 008°53'0 0.0
2016-Aug-18 22:33N 37°53' W 008°53'0 0.0
2016-Aug-18 21:33N 37°53' W 008°53'0 0.0
2016-Aug-18 20:33N 37°53' W 008°53'0 0.0
2016-Aug-18 19:33N 37°53' W 008°53'0 0.0
2016-Aug-18 18:33N 37°53' W 008°53'0 0.0
2016-Aug-18 17:33N 37°53' W 008°53'0 0.0
2016-Aug-18 16:33N 37°53' W 008°53'0 0.0
2016-Aug-18 15:33N 37°53' W 008°53'0 0.0
2016-Aug-18 14:33N 37°53' W 008°53'0 0.0
2016-Aug-18 13:33N 37°53' W 008°53'0 0.0
2016-Aug-18 12:33N 37°53' W 008°53'0 0.0
2016-Aug-18 11:33N 37°53' W 008°53'0 0.0
2016-Aug-18 10:33N 37°53' W 008°53'0 0.0
2016-Aug-18 09:33N 37°53' W 008°53'0 0.0
2016-Aug-18 08:30N 37°53' W 008°53'0 0.0
2016-Aug-18 07:33N 37°53' W 008°53'0 0.0
2016-Aug-18 06:33N 37°53' W 008°53'0 0.1
2016-Aug-18 05:33N 37°53' W 008°53'0 0.0
2016-Aug-18 04:33N 37°53' W 008°53'0 0.0
2016-Aug-18 03:33N 37°53' W 008°53'0 0.0
2016-Aug-18 02:33N 37°53' W 008°53'0 0.0
2016-Aug-18 01:33N 37°53' W 008°53'0 0.0
2016-Aug-18 00:33N 37°53' W 008°53'0 0.0
2016-Aug-17 23:33N 37°53' W 008°53'0 0.1
2016-Aug-17 22:33N 37°53' W 008°53'0 0.1
2016-Aug-17 21:33N 37°53' W 008°53'0 0.1
2016-Aug-17 20:33N 37°53' W 008°53'0 0.1
2016-Aug-17 19:33N 37°53' W 008°53'0 0.0
2016-Aug-17 18:33N 37°53' W 008°53'0 0.0
2016-Aug-17 17:33N 37°53' W 008°53'2 1.9
2016-Aug-17 16:33N 37°55' W 008°54'2 2.3
2016-Aug-17 15:32N 37°57' W 008°53'0 0.0
2016-Aug-17 14:32N 37°57' W 008°53'0 0.0
2016-Aug-17 13:32N 37°57' W 008°53'0 0.0
2016-Aug-17 12:32N 37°57' W 008°53'0 0.0
2016-Aug-17 11:32N 37°57' W 008°53'0 0.0
2016-Aug-17 10:29N 37°57' W 008°53'0 0.0
2016-Aug-17 09:32N 37°57' W 008°53'0 0.0
2016-Aug-17 08:32N 37°57' W 008°53'0 0.0
2016-Aug-17 07:32N 37°57' W 008°53'0 0.0
2016-Aug-17 06:32N 37°57' W 008°53'0 0.0
2016-Aug-17 05:32N 37°57' W 008°53'0 0.0
2016-Aug-17 04:29N 37°57' W 008°53'0 0.0
2016-Aug-17 03:32N 37°57' W 008°53'0 0.0
2016-Aug-17 02:32N 37°57' W 008°53'0 0.0
2016-Aug-17 01:32N 37°57' W 008°53'0 0.0
2016-Aug-17 00:32N 37°57' W 008°53'0 0.0
2016-Aug-16 23:32N 37°57' W 008°53'0 0.0
2016-Aug-16 22:32N 37°57' W 008°53'0 0.0
2016-Aug-16 21:32N 37°57' W 008°53'0 0.0
2016-Aug-16 20:32N 37°57' W 008°53'0 0.0
2016-Aug-16 19:32N 37°57' W 008°53'0 0.0
2016-Aug-16 18:32N 37°57' W 008°53'0 0.0
2016-Aug-16 17:32N 37°57' W 008°53'0 0.0
2016-Aug-16 16:32N 37°57' W 008°53'0 0.0
2016-Aug-16 15:32N 37°57' W 008°53'0 0.0
2016-Aug-16 14:32N 37°57' W 008°53'0 0.0
2016-Aug-16 13:32N 37°57' W 008°53'0 0.0
2016-Aug-16 12:32N 37°57' W 008°53'0 0.0
2016-Aug-16 11:32N 37°57' W 008°53'0 0.0
2016-Aug-16 10:32N 37°57' W 008°53'0 0.0
2016-Aug-16 09:32N 37°57' W 008°53'0 0.2
2016-Aug-16 08:33N 37°57' W 008°53'3 3.3
2016-Aug-16 07:32N 37°54' W 008°56'3010.1
2016-Aug-16 04:33N 38°07' W 009°31'1212.1
2016-Aug-16 03:33N 38°15' W 009°43'1212.3
2016-Aug-16 02:33N 38°24' W 009°54'1211.9
2016-Aug-16 01:33N 38°32' W 010°05'1211.9
2016-Aug-16 00:33N 38°43' W 010°10'1313.0
2016-Aug-15 23:33N 38°56' W 010°12'1212.3
2016-Aug-15 22:33N 39°08' W 010°13'1612.2
2016-Aug-15 21:12N 39°25' W 010°12'10912.4
2016-Aug-15 12:24N 41°14' W 010°11'1112.3
2016-Aug-15 11:30N 41°24' W 010°12'1612.5
2016-Aug-15 10:15N 41°40' W 010°11'1412.4
2016-Aug-15 09:07N 41°54' W 010°12'712.5
2016-Aug-15 08:33N 42°01' W 010°11'1312.3
2016-Aug-15 07:32N 42°14' W 010°12'1512.4
2016-Aug-15 06:17N 42°29' W 010°12'  

Dump ship's entire track history